Time;durP1;ratioP1;P1;durP2;ratioP2;P2;SDS_P1;SDS_P2;PMS_P1;PMS_P2;Temp;Humidity;BMP_temperature;BMP_pressure;BME280_temperature;BME280_humidity;BME280_pressure;Samples;Min_cycle;Max_cycle;Signal;HPM_P1;HPM_P2
2023/05/27 00:00:19;;;;;;;10.90;4.78;;;10.10;86.40;;;;;;5031319;28;20095;-47
2023/05/27 00:02:45;;;;;;;16.92;4.47;;;10.10;86.40;;;;;;5049847;28;20095;-47
2023/05/27 00:05:13;;;;;;;17.98;4.07;;;10.20;86.40;;;;;;5020877;28;20149;-46
2023/05/27 00:07:41;;;;;;;17.52;3.63;;;10.00;86.20;;;;;;5046375;28;20045;-50
2023/05/27 00:10:07;;;;;;;23.20;4.68;;;10.10;86.40;;;;;;5053745;28;20045;-50
2023/05/27 00:12:34;;;;;;;20.17;4.75;;;10.00;86.20;;;;;;5038052;28;20026;-46
2023/05/27 00:15:01;;;;;;;22.08;5.88;;;10.00;86.30;;;;;;5032117;28;20030;-52
2023/05/27 00:17:28;;;;;;;13.45;4.57;;;10.00;86.40;;;;;;5032382;28;20705;-51
2023/05/27 00:19:55;;;;;;;20.70;5.05;;;10.00;86.60;;;;;;5038625;28;20034;-46
2023/05/27 00:22:21;;;;;;;21.23;4.47;;;10.00;86.50;;;;;;5015108;28;20038;-47
2023/05/27 00:24:49;;;;;;;19.88;5.82;;;10.00;86.60;;;;;;5036023;28;20025;-48
2023/05/27 00:27:16;;;;;;;14.18;4.70;;;10.00;86.70;;;;;;5049413;28;20075;-45
2023/05/27 00:29:43;;;;;;;21.33;6.18;;;10.00;86.80;;;;;;5033709;28;20078;-47
2023/05/27 00:32:10;;;;;;;17.17;5.45;;;10.00;87.00;;;;;;5032290;28;20045;-45
2023/05/27 00:34:38;;;;;;;30.38;7.25;;;10.00;87.10;;;;;;5032390;28;20032;-48
2023/05/27 00:37:06;;;;;;;19.77;4.63;;;10.10;87.20;;;;;;5020521;28;20458;-51
2023/05/27 00:39:35;;;;;;;16.00;4.50;;;10.10;87.00;;;;;;5012441;28;20026;-48
2023/05/27 00:42:04;;;;;;;20.13;4.68;;;10.10;86.90;;;;;;5013105;28;20029;-47
2023/05/27 00:44:33;;;;;;;18.05;4.45;;;10.10;86.80;;;;;;5021776;28;20042;-46
2023/05/27 00:47:00;;;;;;;14.55;4.25;;;10.10;86.70;;;;;;5028235;28;20428;-48
2023/05/27 00:49:28;;;;;;;17.45;5.35;;;10.10;86.70;;;;;;5031270;28;20048;-46
2023/05/27 00:51:56;;;;;;;16.42;4.78;;;10.20;86.60;;;;;;5031320;28;20033;-48
2023/05/27 00:54:23;;;;;;;14.82;4.15;;;10.20;86.60;;;;;;5048980;28;20032;-46
2023/05/27 00:56:49;;;;;;;16.40;5.47;;;10.20;86.40;;;;;;5042672;28;20456;-46
2023/05/27 00:59:16;;;;;;;18.27;4.97;;;10.20;86.50;;;;;;5013272;28;20525;-45
2023/05/27 01:01:43;;;;;;;13.23;3.80;;;10.20;86.40;;;;;;5012983;28;20056;-51
2023/05/27 01:04:12;;;;;;;11.93;5.15;;;10.20;86.10;;;;;;5027484;28;20033;-46
2023/05/27 01:07:04;;;;;;;17.10;5.20;;;10.20;85.90;;;;;;5031283;28;20038;-48
2023/05/27 01:09:50;;;;;;;16.98;4.70;;;10.20;85.60;;;;;;5032005;28;20452;-47
2023/05/27 01:12:52;;;;;;;26.10;5.82;;;10.20;85.80;;;;;;5031946;28;20036;-46
2023/05/27 01:15:19;;;;;;;16.10;4.78;;;10.20;85.90;;;;;;5017316;28;20481;-49
2023/05/27 01:17:51;;;;;;;15.88;6.05;;;10.10;86.10;;;;;;5048020;28;20419;-47
2023/05/27 01:20:20;;;;;;;18.65;4.70;;;10.20;86.30;;;;;;5019898;28;20353;-50
2023/05/27 01:22:47;;;;;;;16.95;4.40;;;10.20;86.50;;;;;;5022074;28;20482;-50
2023/05/27 01:25:14;;;;;;;20.48;5.32;;;10.10;86.40;;;;;;5031717;28;20348;-49
2023/05/27 01:27:42;;;;;;;18.02;4.78;;;10.10;86.50;;;;;;5034680;28;20021;-46
2023/05/27 01:30:09;;;;;;;17.58;5.72;;;10.00;86.60;;;;;;5012861;28;20018;-46
2023/05/27 01:32:58;;;;;;;18.95;5.40;;;10.00;86.60;;;;;;5012707;28;20030;-47
2023/05/27 01:35:31;;;;;;;18.30;4.68;;;10.00;86.60;;;;;;5024525;28;20033;-46
2023/05/27 01:38:05;;;;;;;11.70;3.88;;;10.00;86.60;;;;;;5031484;28;20132;-46
2023/05/27 01:40:34;;;;;;;15.52;5.05;;;10.00;86.60;;;;;;5044174;28;20029;-45
2023/05/27 01:43:01;;;;;;;19.35;4.88;;;10.00;86.70;;;;;;5012300;28;20129;-46
2023/05/27 01:45:29;;;;;;;15.10;4.68;;;10.10;86.60;;;;;;5014427;28;20013;-48
2023/05/27 01:47:54;;;;;;;18.60;5.40;;;10.10;86.50;;;;;;5026891;28;20462;-46
2023/05/27 01:50:21;;;;;;;15.13;5.45;;;10.10;86.40;;;;;;5031428;28;20040;-46
2023/05/27 01:52:48;;;;;;;13.52;4.35;;;10.00;86.20;;;;;;5023682;28;20102;-46
2023/05/27 01:55:17;;;;;;;19.63;5.75;;;10.00;85.90;;;;;;5011911;28;20084;-46
2023/05/27 01:57:44;;;;;;;15.18;4.40;;;10.10;86.00;;;;;;5027127;28;20029;-46
2023/05/27 02:00:15;;;;;;;19.58;5.00;;;10.10;86.00;;;;;;5028895;28;20029;-47
2023/05/27 02:02:45;;;;;;;13.30;4.15;;;10.00;86.10;;;;;;5045703;28;20025;-45
2023/05/27 02:05:11;;;;;;;17.90;6.28;;;10.00;86.10;;;;;;5044925;28;20044;-46
2023/05/27 02:07:36;;;;;;;15.15;4.70;;;10.00;86.30;;;;;;5028734;28;20026;-47
2023/05/27 02:10:06;;;;;;;17.50;6.32;;;10.00;86.20;;;;;;5015241;28;20124;-46
2023/05/27 02:12:33;;;;;;;18.70;5.30;;;9.90;86.10;;;;;;5016156;28;20021;-46
2023/05/27 02:15:00;;;;;;;18.98;6.47;;;9.90;86.40;;;;;;5041740;28;20048;-45
2023/05/27 02:17:27;;;;;;;13.32;4.20;;;9.90;86.70;;;;;;5026658;28;20505;-46
2023/05/27 02:19:55;;;;;;;16.73;4.47;;;9.90;86.90;;;;;;5026196;28;20186;-46
2023/05/27 02:22:21;;;;;;;17.23;4.80;;;9.90;87.00;;;;;;5035531;28;20033;-46
2023/05/27 02:24:47;;;;;;;18.30;5.97;;;9.90;87.00;;;;;;5028946;28;20041;-46
2023/05/27 02:27:14;;;;;;;18.27;5.32;;;9.90;87.10;;;;;;5031066;28;20033;-45
2023/05/27 02:29:41;;;;;;;14.35;5.15;;;10.00;87.20;;;;;;5020895;28;20049;-46
2023/05/27 02:32:07;;;;;;;17.30;4.78;;;10.00;87.30;;;;;;5048455;28;20029;-46
2023/05/27 02:34:37;;;;;;;18.08;5.45;;;10.00;87.30;;;;;;5034729;28;20788;-46
2023/05/27 02:37:04;;;;;;;21.83;5.82;;;10.10;87.30;;;;;;5024258;28;20412;-48
2023/05/27 02:39:34;;;;;;;15.02;4.68;;;10.10;87.30;;;;;;5020598;28;20033;-46
2023/05/27 02:42:02;;;;;;;13.90;6.43;;;10.10;87.20;;;;;;5052199;28;20044;-46
2023/05/27 02:44:29;;;;;;;20.10;6.25;;;10.20;86.90;;;;;;5034572;28;20036;-47
2023/05/27 02:46:55;;;;;;;16.73;6.32;;;10.20;86.80;;;;;;5034299;28;20033;-46
2023/05/27 02:49:21;;;;;;;17.27;4.75;;;10.20;86.70;;;;;;5047940;28;20036;-46
2023/05/27 02:51:47;;;;;;;20.67;6.35;;;10.20;86.50;;;;;;5048550;28;20631;-46
2023/05/27 02:54:14;;;;;;;25.45;6.35;;;10.20;86.50;;;;;;5028317;28;20030;-47
2023/05/27 02:56:41;;;;;;;14.20;6.15;;;10.30;86.20;;;;;;5015287;28;20026;-46
2023/05/27 02:59:08;;;;;;;15.20;4.70;;;10.20;86.00;;;;;;5015778;28;20038;-46
2023/05/27 03:01:35;;;;;;;22.85;6.40;;;10.20;85.90;;;;;;5038022;28;20083;-46
2023/05/27 03:04:02;;;;;;;17.85;4.60;;;10.20;85.90;;;;;;5047629;28;20053;-45
2023/05/27 03:06:29;;;;;;;20.58;5.10;;;10.20;85.90;;;;;;5034639;28;20092;-45
2023/05/27 03:08:55;;;;;;;15.68;4.95;;;10.20;85.90;;;;;;5020884;28;20494;-47
2023/05/27 03:11:21;;;;;;;17.52;4.88;;;10.20;86.00;;;;;;5019699;28;20026;-46
2023/05/27 03:13:48;;;;;;;19.25;6.57;;;10.20;85.80;;;;;;5035036;28;20088;-47
2023/05/27 03:16:15;;;;;;;22.40;5.50;;;10.20;85.70;;;;;;5023507;28;20025;-46
2023/05/27 03:18:41;;;;;;;22.30;5.97;;;10.10;85.60;;;;;;5033675;28;20091;-46
2023/05/27 03:21:08;;;;;;;16.10;4.43;;;10.10;85.60;;;;;;5030772;28;20037;-45
2023/05/27 03:23:34;;;;;;;14.48;4.22;;;10.10;85.70;;;;;;5025298;28;20133;-45
2023/05/27 03:26:02;;;;;;;16.85;5.03;;;10.10;85.70;;;;;;5017772;28;20510;-46
2023/05/27 03:28:29;;;;;;;15.00;4.72;;;10.10;85.70;;;;;;5030134;28;20047;-47
2023/05/27 03:30:56;;;;;;;23.58;5.50;;;10.10;85.70;;;;;;5032941;28;20083;-46
2023/05/27 03:33:23;;;;;;;15.18;5.07;;;10.10;85.70;;;;;;5019596;28;20044;-46
2023/05/27 03:35:51;;;;;;;22.15;5.38;;;10.20;85.80;;;;;;5013982;28;20113;-46
2023/05/27 03:38:20;;;;;;;23.60;5.95;;;10.10;85.80;;;;;;5024421;28;20037;-46
2023/05/27 03:40:47;;;;;;;17.90;4.80;;;10.10;85.60;;;;;;5030088;28;20105;-45
2023/05/27 03:43:14;;;;;;;21.80;5.22;;;10.10;85.40;;;;;;5042176;28;20036;-45
2023/05/27 03:45:41;;;;;;;16.25;4.03;;;10.10;85.40;;;;;;5033161;28;20037;-46
2023/05/27 03:48:11;;;;;;;15.05;4.53;;;10.20;85.50;;;;;;5019115;28;20450;-45
2023/05/27 03:50:37;;;;;;;13.02;4.35;;;10.20;85.60;;;;;;5014022;28;20021;-46
2023/05/27 03:53:04;;;;;;;20.42;5.82;;;10.30;85.50;;;;;;5050471;28;20052;-46
2023/05/27 03:55:31;;;;;;;16.85;5.07;;;10.40;85.60;;;;;;5013210;28;20025;-45
2023/05/27 03:57:58;;;;;;;20.70;5.75;;;10.40;85.80;;;;;;5013062;28;20393;-46
2023/05/27 04:00:25;;;;;;;20.88;6.95;;;10.40;86.10;;;;;;5026643;28;20105;-45
2023/05/27 04:02:50;;;;;;;19.15;4.68;;;10.50;86.40;;;;;;5034152;28;20095;-47
2023/05/27 04:05:18;;;;;;;24.42;4.32;;;10.60;86.40;;;;;;5033069;28;20052;-46
2023/05/27 04:07:44;;;;;;;17.63;5.30;;;10.70;86.50;;;;;;5035483;28;20030;-46
2023/05/27 04:10:11;;;;;;;18.42;5.75;;;10.80;86.20;;;;;;5036599;28;20021;-48
2023/05/27 04:12:40;;;;;;;19.83;4.55;;;10.80;85.60;;;;;;5041067;28;20441;-45
2023/05/27 04:15:08;;;;;;;22.88;5.40;;;10.90;85.70;;;;;;5032994;28;20018;-47
2023/05/27 04:17:36;;;;;;;18.95;4.97;;;10.80;85.40;;;;;;5032462;28;20094;-46
2023/05/27 04:20:13;;;;;;;17.83;5.97;;;10.90;85.30;;;;;;5030141;28;20032;-48
2023/05/27 04:22:42;;;;;;;18.55;5.57;;;10.80;84.70;;;;;;5051045;28;20029;-46
2023/05/27 04:25:10;;;;;;;17.15;5.60;;;10.80;84.70;;;;;;5040414;28;20057;-45
2023/05/27 04:27:36;;;;;;;19.13;5.82;;;10.80;84.90;;;;;;5030015;28;20103;-45
2023/05/27 04:30:07;;;;;;;16.88;5.07;;;10.80;84.60;;;;;;5048815;28;20037;-46
2023/05/27 04:32:39;;;;;;;20.83;5.32;;;10.90;84.60;;;;;;5032794;28;20083;-47
2023/05/27 04:35:10;;;;;;;18.60;5.22;;;10.90;84.60;;;;;;5021159;28;20029;-46
2023/05/27 04:37:40;;;;;;;19.95;5.63;;;11.00;84.80;;;;;;5015558;28;20033;-47
2023/05/27 04:40:10;;;;;;;;;;;11.10;84.60;;;;;;5032431;28;20036;-47
2023/05/27 04:42:36;;;;;;;12.88;3.97;;;11.10;84.10;;;;;;5026472;28;19913;-46
2023/05/27 04:45:08;;;;;;;20.98;5.43;;;11.20;84.00;;;;;;5031649;28;20098;-47
2023/05/27 04:47:37;;;;;;;22.48;5.45;;;11.30;83.70;;;;;;5021344;28;20026;-48
2023/05/27 04:50:04;;;;;;;20.45;5.38;;;11.20;83.10;;;;;;5032082;28;20032;-46
2023/05/27 04:52:37;;;;;;;14.82;4.75;;;11.20;83.10;;;;;;5030776;28;20033;-46
2023/05/27 04:55:05;;;;;;;17.15;4.80;;;11.30;83.20;;;;;;5032932;28;20024;-47
2023/05/27 04:57:32;;;;;;;20.45;5.95;;;11.40;83.00;;;;;;5014857;28;20634;-46
2023/05/27 05:00:22;;;;;;;23.20;4.97;;;11.40;82.40;;;;;;5032677;28;20030;-46
2023/05/27 05:02:48;;;;;;;18.52;4.70;;;11.40;81.70;;;;;;5030939;28;20033;-46
2023/05/27 05:05:14;;;;;;;19.20;5.25;;;11.50;81.90;;;;;;5031685;28;20352;-47
2023/05/27 05:07:43;;;;;;;18.52;5.47;;;11.50;81.70;;;;;;5031654;28;20021;-47
2023/05/27 05:10:11;;;;;;;23.93;6.33;;;11.60;81.40;;;;;;5031342;28;20053;-50
2023/05/27 05:12:38;;;;;;;12.25;4.55;;;11.70;81.60;;;;;;5037735;28;20032;-47
2023/05/27 05:15:08;;;;;;;18.00;5.05;;;11.80;81.20;;;;;;5029404;28;20104;-48
2023/05/27 05:17:35;;;;;;;17.20;5.93;;;11.70;80.20;;;;;;5031871;28;20022;-47
2023/05/27 05:20:03;;;;;;;14.60;4.78;;;11.60;79.70;;;;;;5031568;28;20431;-46
2023/05/27 05:22:29;;;;;;;21.65;5.88;;;11.60;80.20;;;;;;5029942;28;20025;-47
2023/05/27 05:24:56;;;;;;;17.27;4.72;;;11.70;79.60;;;;;;5031108;28;20471;-46
2023/05/27 05:27:21;;;;;;;19.40;5.40;;;11.70;79.10;;;;;;5032977;28;20043;-51
2023/05/27 05:29:48;;;;;;;23.42;5.05;;;11.80;79.70;;;;;;5032076;28;20025;-47
2023/05/27 05:32:14;;;;;;;18.13;4.82;;;11.90;79.10;;;;;;5019440;28;20045;-46
2023/05/27 05:34:44;;;;;;;15.32;4.93;;;12.00;79.10;;;;;;5032177;28;20505;-46
2023/05/27 05:37:11;;;;;;;;;;;12.10;78.00;;;;;;5045131;28;20377;-48
2023/05/27 05:39:38;;;;;;;14.63;4.45;;;12.20;77.50;;;;;;5052548;28;19912;-48
2023/05/27 05:42:07;;;;;;;17.30;6.18;;;12.20;77.30;;;;;;5034624;28;20116;-47
2023/05/27 05:44:36;;;;;;;14.23;4.38;;;12.20;77.40;;;;;;5032947;28;20509;-49
2023/05/27 05:47:03;;;;;;;15.37;4.60;;;12.30;77.80;;;;;;5032687;28;20037;-48
2023/05/27 05:49:30;;;;;;;17.98;5.20;;;12.50;78.30;;;;;;5034621;28;20260;-46
2023/05/27 05:51:57;;;;;;;24.33;5.65;;;12.60;77.70;;;;;;5024570;28;20064;-46
2023/05/27 05:54:23;;;;;;;15.05;4.47;;;12.80;76.80;;;;;;5034597;28;20051;-49
2023/05/27 05:56:51;;;;;;;16.90;5.43;;;13.00;76.60;;;;;;5036075;28;20033;-47
2023/05/27 05:59:17;;;;;;;18.05;5.65;;;13.20;76.60;;;;;;5031126;28;20117;-48
2023/05/27 06:01:44;;;;;;;13.70;5.22;;;13.40;76.60;;;;;;5032188;28;20117;-47
2023/05/27 06:04:10;;;;;;;22.20;5.22;;;13.40;75.30;;;;;;5030247;28;20040;-47
2023/05/27 06:06:37;;;;;;;13.02;5.13;;;13.40;75.80;;;;;;5035417;28;20045;-47
2023/05/27 06:09:05;;;;;;;24.00;6.30;;;13.50;75.50;;;;;;5041126;28;20510;-49
2023/05/27 06:11:34;;;;;;;14.95;4.97;;;13.40;76.20;;;;;;5051771;28;20032;-48
2023/05/27 06:14:00;;;;;;;18.25;5.75;;;13.30;76.00;;;;;;5034664;28;20458;-49
2023/05/27 06:16:28;;;;;;;15.20;4.70;;;13.10;76.50;;;;;;5034392;28;20332;-47
2023/05/27 06:18:54;;;;;;;24.88;6.55;;;12.90;76.70;;;;;;5032969;28;20029;-48
2023/05/27 06:21:21;;;;;;;18.15;5.75;;;12.90;77.80;;;;;;5033484;28;20022;-50
2023/05/27 06:23:47;;;;;;;23.20;5.70;;;12.90;77.60;;;;;;5035022;28;20035;-46
2023/05/27 06:26:14;;;;;;;16.15;4.88;;;12.90;77.70;;;;;;5035168;28;20080;-47
2023/05/27 06:28:40;;;;;;;19.95;5.40;;;12.90;77.30;;;;;;5035526;28;20034;-47
2023/05/27 06:31:07;;;;;;;26.25;7.18;;;12.90;76.80;;;;;;5033914;28;20033;-47
2023/05/27 06:33:34;;;;;;;18.23;5.88;;;12.90;77.80;;;;;;5032796;28;20030;-48
2023/05/27 06:35:59;;;;;;;20.55;5.35;;;12.90;76.70;;;;;;5034856;28;20340;-47
2023/05/27 06:38:26;;;;;;;18.20;6.18;;;13.00;77.00;;;;;;5033133;28;20322;-47
2023/05/27 06:40:53;;;;;;;18.75;5.00;;;13.00;77.00;;;;;;5034823;28;20060;-47
2023/05/27 06:43:19;;;;;;;15.55;5.78;;;13.10;77.50;;;;;;5033542;28;20017;-47
2023/05/27 06:45:46;;;;;;;17.73;5.75;;;13.40;77.20;;;;;;5033657;28;20090;-48
2023/05/27 06:48:15;;;;;;;18.98;5.30;;;13.50;76.70;;;;;;5015429;28;20029;-46
2023/05/27 06:50:42;;;;;;;;;;;13.40;77.10;;;;;;5026591;28;20486;-47
2023/05/27 06:53:10;;;;;;;17.48;5.38;;;13.50;76.90;;;;;;5034273;28;20231;-48
2023/05/27 06:55:40;;;;;;;17.63;6.35;;;13.40;76.40;;;;;;5031582;28;20044;-47
2023/05/27 06:58:07;;;;;;;13.88;4.93;;;13.40;76.50;;;;;;5032182;28;20027;-47
2023/05/27 07:00:37;;;;;;;22.15;5.72;;;13.40;75.80;;;;;;5032696;28;20343;-48
2023/05/27 07:03:05;;;;;;;21.23;5.07;;;13.40;76.30;;;;;;5030417;28;20044;-47
2023/05/27 07:05:32;;;;;;;18.27;5.38;;;13.40;75.30;;;;;;5034068;28;20099;-46
2023/05/27 07:07:58;;;;;;;15.05;5.32;;;13.40;75.10;;;;;;5043932;28;20038;-48
2023/05/27 07:10:25;;;;;;;18.55;5.40;;;13.40;75.00;;;;;;5025082;28;20059;-47
2023/05/27 07:12:52;;;;;;;17.13;4.45;;;13.40;75.10;;;;;;5026227;28;20127;-47
2023/05/27 07:15:21;;;;;;;15.27;5.43;;;13.40;74.60;;;;;;5020804;28;20026;-50
2023/05/27 07:17:48;;;;;;;17.33;4.15;;;13.50;74.70;;;;;;5014474;28;20409;-47
2023/05/27 07:20:15;;;;;;;13.18;4.60;;;13.70;74.70;;;;;;5035928;28;20037;-46
2023/05/27 07:22:42;;;;;;;18.10;5.35;;;14.00;74.40;;;;;;5016928;28;20030;-47
2023/05/27 07:25:09;;;;;;;18.33;4.57;;;14.20;72.60;;;;;;5031788;28;20032;-47
2023/05/27 07:27:36;;;;;;;21.75;5.15;;;14.30;72.20;;;;;;5031582;28;20513;-47
2023/05/27 07:30:07;;;;;;;14.40;5.05;;;14.50;71.10;;;;;;5025585;28;20026;-50
2023/05/27 07:32:34;;;;;;;16.95;5.13;;;15.00;70.70;;;;;;5033868;28;20026;-47
2023/05/27 07:35:00;;;;;;;21.33;5.78;;;15.40;69.80;;;;;;5034296;28;20014;-47
2023/05/27 07:37:28;;;;;;;13.80;5.32;;;15.90;67.80;;;;;;5032334;28;20026;-47
2023/05/27 07:39:55;;;;;;;16.77;4.90;;;16.30;67.10;;;;;;5028739;28;20467;-47
2023/05/27 07:42:23;;;;;;;18.45;5.18;;;16.90;66.60;;;;;;5025220;28;20025;-48
2023/05/27 07:44:50;;;;;;;14.00;3.90;;;17.20;64.40;;;;;;5035466;28;20041;-50
2023/05/27 07:47:17;;;;;;;16.40;4.60;;;17.20;64.80;;;;;;5025416;28;20034;-47
2023/05/27 07:49:46;;;;;;;19.20;5.15;;;17.40;62.10;;;;;;5039627;28;20026;-48
2023/05/27 07:52:13;;;;;;;14.85;4.18;;;17.80;60.80;;;;;;5027482;28;20449;-50
2023/05/27 07:54:40;;;;;;;15.77;5.20;;;18.00;61.60;;;;;;5015339;28;20030;-47
2023/05/27 07:57:06;;;;;;;15.38;4.78;;;18.30;60.20;;;;;;5037779;28;20029;-47
2023/05/27 07:59:33;;;;;;;16.48;4.95;;;18.30;60.70;;;;;;5036513;28;20056;-48
2023/05/27 08:01:59;;;;;;;17.60;5.53;;;18.40;59.40;;;;;;5045824;28;20040;-47
2023/05/27 08:04:25;;;;;;;16.08;4.95;;;18.60;59.20;;;;;;5033577;28;20029;-48
2023/05/27 08:06:52;;;;;;;14.98;5.22;;;18.80;58.90;;;;;;5023168;28;20065;-46
2023/05/27 08:09:19;;;;;;;17.42;4.53;;;19.00;57.60;;;;;;5020266;28;20034;-44
2023/05/27 08:11:45;;;;;;;11.05;4.88;;;18.90;55.70;;;;;;5023937;28;20092;-49
2023/05/27 08:14:12;;;;;;;15.45;5.82;;;19.00;58.30;;;;;;5027945;28;20208;-48
2023/05/27 08:16:40;;;;;;;11.43;4.55;;;19.10;55.90;;;;;;5033272;28;20412;-45
2023/05/27 08:19:06;;;;;;;19.95;5.85;;;19.40;56.90;;;;;;5031566;28;20033;-47
2023/05/27 08:21:36;;;;;;;18.70;4.72;;;19.30;57.20;;;;;;5031083;28;20034;-46
2023/05/27 08:24:04;;;;;;;13.93;5.78;;;19.30;56.90;;;;;;5033139;28;20021;-45
2023/05/27 08:26:33;;;;;;;13.60;5.00;;;19.40;56.20;;;;;;5032492;28;20116;-45
2023/05/27 08:29:05;;;;;;;17.52;5.43;;;19.80;55.90;;;;;;5041811;28;20088;-46
2023/05/27 08:31:32;;;;;;;19.00;5.72;;;19.90;55.90;;;;;;5024645;28;20025;-47
2023/05/27 08:33:59;;;;;;;15.35;5.10;;;19.90;56.10;;;;;;5025590;28;20096;-47
2023/05/27 08:36:26;;;;;;;15.57;4.85;;;19.80;53.60;;;;;;5032786;28;20029;-46
2023/05/27 08:38:53;;;;;;;14.52;5.00;;;19.90;55.70;;;;;;5029785;28;20120;-48
2023/05/27 08:41:21;;;;;;;14.55;4.93;;;20.00;53.80;;;;;;5031972;28;20492;-46
2023/05/27 08:43:49;;;;;;;13.88;4.63;;;20.30;53.80;;;;;;5043996;28;20075;-48
2023/05/27 08:46:15;;;;;;;12.80;5.22;;;20.10;54.40;;;;;;5038964;28;20044;-51
2023/05/27 08:48:43;;;;;;;15.38;5.38;;;19.90;55.30;;;;;;5041354;28;20033;-46
2023/05/27 08:51:10;;;;;;;12.25;5.40;;;19.80;55.80;;;;;;5036955;28;20041;-49
2023/05/27 08:53:38;;;;;;;20.92;4.72;;;19.80;55.50;;;;;;5042005;28;20029;-45
2023/05/27 08:56:07;;;;;;;14.80;5.78;;;19.80;55.00;;;;;;5029349;28;20102;-49
2023/05/27 08:58:35;;;;;;;11.68;4.68;;;20.20;56.80;;;;;;5039053;28;20112;-47
2023/05/27 09:01:06;;;;;;;12.75;4.60;;;20.50;56.70;;;;;;5031082;28;20057;-49
2023/05/27 09:03:32;;;;;;;12.55;4.85;;;20.70;53.40;;;;;;5026194;28;20018;-46
2023/05/27 09:06:01;;;;;;;15.75;4.60;;;20.30;54.20;;;;;;5030580;28;20037;-48
2023/05/27 09:08:27;;;;;;;;;;;20.10;55.00;;;;;;5039915;28;20427;-47
2023/05/27 09:10:54;;;;;;;14.65;5.15;;;19.80;54.70;;;;;;5032557;28;19924;-48
2023/05/27 09:13:29;;;;;;;15.63;5.22;;;19.70;54.10;;;;;;5039766;28;20377;-50
2023/05/27 09:16:02;;;;;;;14.40;4.82;;;19.70;58.70;;;;;;5040508;28;20029;-45
2023/05/27 09:18:35;;;;;;;12.10;5.13;;;19.90;54.70;;;;;;5029205;28;20033;-48
2023/05/27 09:21:03;;;;;;;13.73;4.75;;;19.90;55.80;;;;;;5031676;28;20048;-48
2023/05/27 09:23:29;;;;;;;9.90;4.63;;;19.90;54.40;;;;;;5032513;28;20057;-48
2023/05/27 09:25:58;;;;;;;12.85;4.65;;;19.90;56.00;;;;;;5025731;28;20049;-49
2023/05/27 09:28:26;;;;;;;11.48;4.45;;;19.80;55.30;;;;;;5028233;28;20021;-49
2023/05/27 09:31:08;;;;;;;11.95;4.63;;;20.10;54.90;;;;;;5032088;28;20371;-47
2023/05/27 09:33:39;;;;;;;13.38;4.47;;;20.00;55.30;;;;;;5028173;28;20022;-49
2023/05/27 09:36:06;;;;;;;9.93;4.32;;;20.20;54.80;;;;;;5027733;28;20084;-48
2023/05/27 09:38:35;;;;;;;12.65;4.88;;;20.60;54.90;;;;;;5046445;28;20033;-49
2023/05/27 09:41:04;;;;;;;11.65;4.22;;;20.40;52.60;;;;;;5032463;28;20041;-49
2023/05/27 09:43:31;;;;;;;15.63;5.55;;;20.60;52.70;;;;;;5031314;28;20026;-47
2023/05/27 09:46:16;;;;;;;12.35;4.82;;;20.40;52.60;;;;;;5025377;28;20042;-47
2023/05/27 09:48:43;;;;;;;12.98;4.55;;;20.60;51.40;;;;;;5032629;28;20041;-47
2023/05/27 09:51:10;;;;;;;15.18;4.57;;;20.60;53.80;;;;;;5030398;28;20033;-48
2023/05/27 09:53:38;;;;;;;13.70;4.18;;;20.60;51.50;;;;;;5027152;28;20392;-47
2023/05/27 09:56:05;;;;;;;16.27;4.95;;;20.80;53.50;;;;;;5021832;28;20378;-50
2023/05/27 09:58:32;;;;;;;14.82;4.95;;;20.80;54.60;;;;;;5047101;28;20018;-47
2023/05/27 10:00:59;;;;;;;10.90;4.63;;;20.50;53.10;;;;;;5033222;28;20108;-48
2023/05/27 10:03:27;;;;;;;12.77;5.10;;;20.50;54.00;;;;;;5031548;28;20088;-49
2023/05/27 10:05:56;;;;;;;10.65;4.97;;;20.80;53.50;;;;;;5031256;28;20358;-49
2023/05/27 10:08:24;;;;;;;11.48;4.78;;;20.80;54.40;;;;;;5029955;28;20108;-47
2023/05/27 10:10:51;;;;;;;19.23;4.80;;;20.60;51.40;;;;;;5032609;28;20033;-50
2023/05/27 10:13:20;;;;;;;13.88;4.55;;;20.80;51.60;;;;;;5026072;28;20432;-49
2023/05/27 10:15:53;;;;;;;9.85;4.75;;;20.50;53.50;;;;;;5019285;28;20451;-47
2023/05/27 10:18:30;;;;;;;16.88;4.97;;;20.30;54.30;;;;;;5016012;28;20471;-50
2023/05/27 10:21:03;;;;;;;11.50;4.60;;;20.50;56.60;;;;;;5011604;28;20077;-48
2023/05/27 10:23:34;;;;;;;14.13;4.70;;;20.40;53.20;;;;;;5014866;28;20509;-48
2023/05/27 10:26:07;;;;;;;12.20;5.43;;;20.40;51.40;;;;;;5030268;28;20463;-47
2023/05/27 10:28:51;;;;;;;10.75;4.03;;;20.20;52.60;;;;;;5031024;28;20030;-51
2023/05/27 10:31:18;;;;;;;11.43;4.30;;;20.40;53.80;;;;;;5030760;28;20021;-47
2023/05/27 10:33:46;;;;;;;13.07;4.70;;;20.30;56.50;;;;;;5034891;28;20026;-47
2023/05/27 10:36:24;;;;;;;12.48;4.70;;;20.20;57.70;;;;;;5037627;28;20049;-48
2023/05/27 10:39:11;;;;;;;15.65;5.75;;;20.40;54.40;;;;;;5015973;28;20509;-47
2023/05/27 10:41:58;;;;;;;11.50;5.07;;;20.70;57.40;;;;;;5030386;28;20504;-47
2023/05/27 10:44:32;;;;;;;14.80;4.80;;;20.70;55.90;;;;;;5033226;28;20104;-49
2023/05/27 10:47:09;;;;;;;17.42;5.32;;;20.70;56.80;;;;;;5040991;28;20033;-52
2023/05/27 10:49:38;;;;;;;13.75;4.72;;;20.40;56.50;;;;;;5044143;28;20443;-48
2023/05/27 10:52:13;;;;;;;18.08;5.97;;;20.40;55.30;;;;;;5044995;28;20040;-49
2023/05/27 10:54:48;;;;;;;16.63;5.93;;;20.30;58.50;;;;;;5054228;28;20416;-49
2023/05/27 10:57:16;;;;;;;23.40;6.05;;;20.10;58.40;;;;;;5045670;28;20511;-48
2023/05/27 10:59:55;;;;;;;20.88;6.03;;;20.10;57.80;;;;;;5033505;28;20037;-51
2023/05/27 11:02:22;;;;;;;15.23;5.32;;;20.00;59.20;;;;;;5033382;28;20037;-48
2023/05/27 11:04:50;;;;;;;14.07;6.05;;;19.70;59.70;;;;;;5018193;28;20038;-48
2023/05/27 11:07:20;;;;;;;11.50;4.40;;;19.40;59.60;;;;;;5028632;28;20046;-48
2023/05/27 11:09:56;;;;;;;14.75;5.70;;;19.40;60.60;;;;;;5027905;28;20467;-48
2023/05/27 11:12:24;;;;;;;13.13;4.88;;;19.50;60.20;;;;;;5015098;28;20033;-50
2023/05/27 11:14:52;;;;;;;14.70;5.30;;;19.60;58.20;;;;;;5028306;28;20026;-51
2023/05/27 11:17:20;;;;;;;15.98;5.93;;;19.80;57.50;;;;;;5031579;28;20026;-46
2023/05/27 11:19:49;;;;;;;17.40;5.65;;;19.70;60.70;;;;;;5033239;28;20057;-49
2023/05/27 11:22:19;;;;;;;18.40;4.85;;;19.50;59.50;;;;;;5031646;28;20029;-48
2023/05/27 11:25:05;;;;;;;17.63;5.55;;;19.40;60.50;;;;;;5031679;28;20034;-47
2023/05/27 11:27:37;;;;;;;16.98;6.93;;;19.30;59.60;;;;;;5031906;28;20053;-47
2023/05/27 11:30:11;;;;;;;17.90;6.25;;;19.40;58.90;;;;;;5030674;28;20025;-47
2023/05/27 11:32:42;;;;;;;16.58;5.72;;;19.30;60.40;;;;;;5032181;28;20061;-52
2023/05/27 11:35:17;;;;;;;15.00;5.70;;;19.40;62.00;;;;;;5031990;28;20083;-47
2023/05/27 11:37:51;;;;;;;19.88;5.68;;;19.40;61.50;;;;;;5032223;28;20017;-48
2023/05/27 11:40:18;;;;;;;15.25;6.10;;;19.40;61.00;;;;;;5033695;28;20454;-49
2023/05/27 11:42:49;;;;;;;13.98;5.07;;;19.30;62.20;;;;;;5032169;28;20334;-48
2023/05/27 11:45:19;;;;;;;15.57;5.65;;;19.30;61.60;;;;;;5028527;28;20061;-48
2023/05/27 11:47:50;;;;;;;22.15;5.72;;;19.30;60.70;;;;;;5035831;28;20111;-49
2023/05/27 11:50:20;;;;;;;12.10;5.57;;;19.10;62.70;;;;;;5028740;28;20032;-50
2023/05/27 11:52:51;;;;;;;;;;;19.10;62.10;;;;;;5032015;28;20041;-49
2023/05/27 11:55:18;;;;;;;21.17;6.28;;;19.00;61.80;;;;;;5030877;28;19924;-46
2023/05/27 11:57:45;;;;;;;15.63;4.95;;;18.90;61.80;;;;;;5031487;28;20056;-46
2023/05/27 12:00:14;;;;;;;16.13;4.90;;;18.90;64.80;;;;;;5027847;28;20111;-46
2023/05/27 12:02:42;;;;;;;14.20;5.10;;;18.90;62.60;;;;;;5048757;28;20181;-47
2023/05/27 12:05:09;;;;;;;16.60;4.97;;;18.80;63.40;;;;;;5053434;28;20040;-46
2023/05/27 12:07:40;;;;;;;23.70;6.25;;;18.70;67.50;;;;;;5042219;28;20461;-49
2023/05/27 12:10:08;;;;;;;18.60;5.32;;;18.70;66.60;;;;;;5028166;28;20034;-49
2023/05/27 12:12:35;;;;;;;24.35;5.80;;;18.50;64.50;;;;;;5029463;28;20037;-46
2023/05/27 12:15:03;;;;;;;14.02;5.03;;;18.40;66.90;;;;;;5022351;28;20021;-47
2023/05/27 12:17:30;;;;;;;17.45;5.68;;;18.20;64.90;;;;;;5049200;28;20074;-46
2023/05/27 12:19:57;;;;;;;15.27;5.30;;;18.30;67.50;;;;;;5031971;28;20120;-47
2023/05/27 12:22:24;;;;;;;14.40;4.70;;;18.20;67.10;;;;;;5024834;28;20045;-48
2023/05/27 12:24:51;;;;;;;17.92;5.40;;;18.10;66.60;;;;;;5046723;28;20063;-46
2023/05/27 12:27:20;;;;;;;15.25;5.10;;;17.90;68.40;;;;;;5043703;28;20029;-47
2023/05/27 12:29:47;;;;;;;17.70;6.07;;;17.90;69.20;;;;;;5034382;28;20040;-46
2023/05/27 12:32:14;;;;;;;19.85;5.97;;;18.00;68.90;;;;;;5013580;28;20030;-49
2023/05/27 12:34:41;;;;;;;21.08;5.65;;;18.10;67.50;;;;;;5026955;28;20041;-50
2023/05/27 12:37:08;;;;;;;21.42;5.82;;;18.00;67.30;;;;;;5033151;28;20021;-51
2023/05/27 12:39:35;;;;;;;20.50;5.50;;;18.00;67.30;;;;;;5028182;28;20030;-46
2023/05/27 12:42:01;;;;;;;15.95;4.57;;;17.80;65.80;;;;;;5031649;28;20025;-46
2023/05/27 12:44:31;;;;;;;17.95;6.22;;;17.80;68.10;;;;;;5042519;28;20448;-49